Terminal Aerodrome Forecast
Issued by NWS

Home | Current Version | Previous Version | Text Only | Print | Product List | Glossary On
Versions: 1 2 3 4 5 6 7 8 9 10 11 12 13
376
FTUS43 KGRR 231125
TAFLAN
TAF
KLAN 231125Z 2312/2412 06008KT P6SM BKN250
     FM231500 08010G20KT P6SM BKN250
     FM232300 12006KT P6SM BKN070
     FM240900 10005KT P6SM VCSH OVC025=

USA.gov is the U.S. government's official web portal to all federal, state and local government web resources and services.